createdAt,value
2023-01-18T00:02:55.043Z,96735.31
2023-01-18T00:12:58.478Z,96745.00
2023-01-18T00:23:00.746Z,96723.31
2023-01-18T00:33:02.236Z,96740.94
2023-01-18T00:43:22.418Z,96741.66
2023-01-18T00:53:23.796Z,96743.44
2023-01-18T01:03:25.392Z,96746.50
2023-01-18T01:13:45.512Z,96749.88
2023-01-18T01:24:05.580Z,96752.41
2023-01-18T01:34:07.218Z,96760.81
2023-01-18T01:44:17.783Z,96772.19
2023-01-18T01:54:25.628Z,96771.41
2023-01-18T02:04:27.045Z,96783.38
2023-01-18T02:14:28.474Z,96793.56
2023-01-18T02:25:07.428Z,96811.31
2023-01-18T02:35:16.370Z,96812.75
2023-01-18T02:45:42.515Z,96816.69
2023-01-18T02:56:04.871Z,96821.84
2023-01-18T03:06:06.503Z,96834.50
2023-01-18T03:16:14.743Z,96825.50
2023-01-18T03:26:18.156Z,96833.03
2023-01-18T03:36:31.565Z,96848.13
2023-01-18T03:46:33.173Z,96844.66
2023-01-18T03:56:38.963Z,96857.00
2023-01-18T04:06:40.519Z,96872.63
2023-01-18T04:16:41.994Z,96887.91
2023-01-18T04:26:43.496Z,96897.47
2023-01-18T04:36:45.035Z,96899.84
2023-01-18T04:46:47.464Z,96911.94
2023-01-18T04:56:49.001Z,96925.06
2023-01-18T05:06:50.410Z,96927.25
2023-01-18T05:16:51.832Z,96943.38
2023-01-18T05:26:53.232Z,96961.13
2023-01-18T05:36:54.650Z,96970.50
2023-01-18T05:46:56.048Z,96992.50
2023-01-18T05:56:58.788Z,97010.03
2023-01-18T06:07:00.296Z,97012.19
2023-01-18T06:17:01.809Z,97036.47
2023-01-18T06:27:04.080Z,97049.97
2023-01-18T06:37:05.507Z,97063.34
2023-01-18T06:47:06.889Z,97083.13
2023-01-18T06:57:08.272Z,97088.25
2023-01-18T07:07:09.709Z,97107.16
2023-01-18T07:17:11.108Z,97115.28
2023-01-18T07:27:12.540Z,97123.19
2023-01-18T07:37:13.922Z,97145.19
2023-01-18T07:47:15.300Z,97156.72
2023-01-18T07:57:16.718Z,97170.66
2023-01-18T08:07:18.499Z,97188.69
2023-01-18T08:17:20.236Z,97215.47
2023-01-18T08:27:22.383Z,97228.13
2023-01-18T08:37:23.813Z,97237.94
2023-01-18T08:47:25.189Z,97255.97
2023-01-18T08:57:27.671Z,97269.31
2023-01-18T09:07:29.048Z,97283.19
2023-01-18T09:17:30.592Z,97297.25
2023-01-18T09:27:32.228Z,97311.47
2023-01-18T09:37:33.612Z,97313.81
2023-01-18T09:47:40.025Z,97343.69
2023-01-18T09:57:50.531Z,97347.06
2023-01-18T10:08:13.416Z,97353.00
2023-01-18T10:18:15.888Z,97356.00
2023-01-18T10:28:39.507Z,97364.06
2023-01-18T10:38:41.053Z,97367.56
2023-01-18T10:48:50.178Z,97370.25
2023-01-18T10:58:51.412Z,97374.44
2023-01-18T11:08:52.875Z,97388.69
2023-01-18T11:18:58.390Z,97391.91
2023-01-18T11:29:04.603Z,97395.19
2023-01-18T11:39:18.125Z,97404.06
2023-01-18T11:49:43.003Z,97405.69
2023-01-18T11:59:45.562Z,97402.19
2023-01-18T12:09:55.921Z,97396.56
2023-01-18T12:20:00.743Z,97407.66
2023-01-18T12:30:13.822Z,97409.50
2023-01-18T12:40:46.464Z,97418.72
2023-01-18T12:50:49.291Z,97415.78
2023-01-18T13:00:56.688Z,97421.16
2023-01-18T13:11:05.500Z,97426.75
2023-01-18T13:21:16.760Z,97428.41
2023-01-18T13:31:20.296Z,97443.00
2023-01-18T13:41:26.313Z,97457.22
2023-01-18T13:51:49.384Z,97459.66
2023-01-18T14:01:50.945Z,97470.75
2023-01-18T14:11:56.827Z,97487.09
2023-01-18T14:22:13.280Z,97494.22
2023-01-18T14:32:21.712Z,97491.06
2023-01-18T14:42:23.108Z,97511.44
2023-01-18T14:52:27.507Z,97522.44
2023-01-18T15:02:36.660Z,97528.38
2023-01-18T15:12:38.285Z,97544.75
2023-01-18T15:22:40.863Z,97560.31
2023-01-18T15:32:42.386Z,97571.34
2023-01-18T15:42:59.286Z,97571.03
2023-01-18T15:53:12.161Z,97564.97
2023-01-18T16:03:25.526Z,97570.25
2023-01-18T16:13:35.550Z,97593.53
2023-01-18T16:23:36.933Z,97591.16
2023-01-18T16:33:38.334Z,97607.50
2023-01-18T16:43:39.921Z,97613.16
2023-01-18T16:53:41.628Z,97618.78
2023-01-18T17:03:43.222Z,97639.63
2023-01-18T17:13:44.873Z,97635.97
2023-01-18T17:23:46.465Z,97657.13
2023-01-18T17:33:47.874Z,97676.72
2023-01-18T17:43:49.473Z,97679.44
2023-01-18T17:53:50.863Z,97687.72
2023-01-18T18:03:52.519Z,97697.22
2023-01-18T18:13:54.331Z,97704.88
2023-01-18T18:23:55.897Z,97708.09
2023-01-18T18:33:57.469Z,97732.34
2023-01-18T18:43:58.961Z,97737.97
2023-01-18T18:54:00.421Z,97748.59
2023-01-18T19:04:01.834Z,97762.06
2023-01-18T19:14:03.250Z,97776.59
2023-01-18T19:24:05.127Z,97783.72
2023-01-18T19:34:06.606Z,97800.97
2023-01-18T19:44:08.878Z,97801.38
2023-01-18T19:54:12.463Z,97810.31
2023-01-18T20:04:14.065Z,97806.28
2023-01-18T20:14:15.522Z,97812.56
2023-01-18T20:24:16.918Z,97819.84
2023-01-18T20:34:18.750Z,97824.72
2023-01-18T20:44:20.668Z,97825.16
2023-01-18T20:54:22.170Z,97841.47
2023-01-18T21:04:23.579Z,97853.22
2023-01-18T21:14:24.978Z,97860.31
2023-01-18T21:24:26.506Z,97871.63
2023-01-18T21:34:27.891Z,97883.38
2023-01-18T21:44:48.399Z,97876.22
2023-01-18T21:54:49.834Z,97887.50
2023-01-18T22:05:00.220Z,97894.44
2023-01-18T22:15:02.263Z,97902.97
2023-01-18T22:25:04.145Z,97906.97
2023-01-18T22:35:05.817Z,97916.75
2023-01-18T22:45:07.678Z,97914.03
2023-01-18T22:55:09.421Z,97912.53
2023-01-18T23:05:11.005Z,97923.59
2023-01-18T23:15:30.653Z,97933.38
2023-01-18T23:25:34.845Z,97931.94
2023-01-18T23:35:36.225Z,97938.47
2023-01-18T23:45:56.101Z,97941.34
2023-01-18T23:55:57.700Z,97954.38
